Time;durP1;ratioP1;P1;durP2;ratioP2;P2;SDS_P1;SDS_P2;PMS_P1;PMS_P2;Temp;Humidity;BMP_temperature;BMP_pressure;BME280_temperature;BME280_humidity;BME280_pressure;Samples;Min_cycle;Max_cycle;Signal;HPM_P1;HPM_P2
2021/10/17 00:00:51;;;;;;;12.47;9.20;;;10.70;1.00;;;;;;5093038;28;20241;-73
2021/10/17 00:03:17;;;;;;;12.87;8.93;;;10.60;1.00;;;;;;5092814;28;20255;-73
2021/10/17 00:05:44;;;;;;;11.10;8.97;;;10.60;1.00;;;;;;5092755;28;20209;-77
2021/10/17 00:08:11;;;;;;;11.97;10.13;;;10.60;1.00;;;;;;5093401;28;20201;-77
2021/10/17 00:10:40;;;;;;;10.63;9.30;;;10.60;1.00;;;;;;5093155;28;20213;-76
2021/10/17 00:13:09;;;;;;;11.90;9.30;;;10.60;1.00;;;;;;5093568;28;20209;-74
2021/10/17 00:15:38;;;;;;;11.20;8.60;;;10.50;1.00;;;;;;5092630;28;20635;-74
2021/10/17 00:18:07;;;;;;;11.30;8.70;;;10.40;1.00;;;;;;5093001;28;20225;-75
2021/10/17 00:20:34;;;;;;;9.47;7.83;;;10.60;1.00;;;;;;5092400;28;20214;-77
2021/10/17 00:23:01;;;;;;;8.87;7.23;;;10.60;1.00;;;;;;5092781;28;20202;-78
2021/10/17 00:25:28;;;;;;;9.07;7.97;;;10.70;1.00;;;;;;5092402;28;20274;-77
2021/10/17 00:27:57;;;;;;;10.43;8.10;;;10.70;1.00;;;;;;5092741;28;20209;-76
2021/10/17 00:30:24;;;;;;;8.10;7.03;;;10.70;1.00;;;;;;5092464;28;20205;-71
2021/10/17 00:32:51;;;;;;;11.53;8.20;;;10.70;1.00;;;;;;5092437;28;20266;-73
2021/10/17 00:35:18;;;;;;;10.07;7.63;;;10.70;1.00;;;;;;5091894;28;20202;-77
2021/10/17 00:37:45;;;;;;;8.83;7.40;;;10.70;1.00;;;;;;5092420;28;20229;-77
2021/10/17 00:40:14;;;;;;;9.47;6.67;;;10.70;1.00;;;;;;5091876;28;20206;-67
2021/10/17 00:42:42;;;;;;;9.17;6.63;;;10.80;1.00;;;;;;5092477;28;20657;-76
2021/10/17 00:45:13;;;;;;;8.67;6.57;;;10.80;1.00;;;;;;5092406;28;20254;-70
2021/10/17 00:47:40;;;;;;;7.43;5.63;;;10.80;1.00;;;;;;5092457;28;20259;-70
2021/10/17 00:50:09;;;;;;;9.00;6.07;;;10.80;1.00;;;;;;5092556;28;20255;-73
2021/10/17 00:52:37;;;;;;;13.50;8.07;;;10.70;1.00;;;;;;5091118;28;20209;-72
2021/10/17 00:55:06;;;;;;;15.27;8.47;;;10.70;1.00;;;;;;5092069;28;20271;-76
2021/10/17 00:57:34;;;;;;;16.17;9.77;;;10.70;1.00;;;;;;5091403;28;20658;-71
2021/10/17 01:00:01;;;;;;;17.57;9.47;;;10.70;1.00;;;;;;5091886;28;20746;-77
2021/10/17 01:02:29;;;;;;;7.13;6.43;;;10.60;1.00;;;;;;5091539;28;20206;-77
2021/10/17 01:04:56;;;;;;;7.83;5.77;;;10.40;1.00;;;;;;5092264;28;20201;-77
2021/10/17 01:07:24;;;;;;;8.33;5.33;;;10.40;1.00;;;;;;5091385;28;20217;-71
2021/10/17 01:09:51;;;;;;;9.83;5.53;;;10.40;1.00;;;;;;5091706;28;20730;-78
2021/10/17 01:12:18;;;;;;;7.07;5.07;;;10.30;1.00;;;;;;5091137;28;20583;-71
2021/10/17 01:14:45;;;;;;;8.23;5.77;;;10.30;1.00;;;;;;5091996;28;20261;-76
2021/10/17 01:17:12;;;;;;;7.17;6.17;;;10.40;1.00;;;;;;5091744;28;20208;-71
2021/10/17 01:19:46;;;;;;;8.83;6.37;;;10.50;1.00;;;;;;5092069;28;20206;-74
2021/10/17 01:22:14;;;;;;;8.50;6.40;;;10.50;1.00;;;;;;5091074;28;20285;-71
2021/10/17 01:24:41;;;;;;;11.03;7.50;;;10.40;1.00;;;;;;5091462;28;20209;-77
2021/10/17 01:27:08;;;;;;;7.03;6.10;;;10.50;1.00;;;;;;5091882;28;20213;-77
2021/10/17 01:29:35;;;;;;;8.77;7.47;;;10.50;1.00;;;;;;5091407;28;20209;-71
2021/10/17 01:32:03;;;;;;;10.03;6.27;;;10.40;1.00;;;;;;5091209;28;20205;-76
2021/10/17 01:34:30;;;;;;;12.07;7.17;;;10.30;1.00;;;;;;5091173;28;20210;-76
2021/10/17 01:36:58;;;;;;;14.60;9.80;;;10.30;1.00;;;;;;5091161;28;20213;-76
2021/10/17 01:39:25;;;;;;;11.63;7.53;;;10.20;1.00;;;;;;5090832;28;20233;-77
2021/10/17 01:41:53;;;;;;;11.07;8.70;;;10.30;1.00;;;;;;5091347;28;20209;-77
2021/10/17 01:44:28;;;;;;;10.23;7.73;;;10.30;1.00;;;;;;5091189;28;20202;-75
2021/10/17 01:46:58;;;;;;;10.20;8.17;;;10.30;1.00;;;;;;5090942;28;20253;-71
2021/10/17 01:49:25;;;;;;;8.53;7.63;;;10.20;1.00;;;;;;5090731;28;20218;-77
2021/10/17 01:51:52;;;;;;;11.90;8.37;;;10.20;1.00;;;;;;5090610;28;20629;-71
2021/10/17 01:54:20;;;;;;;10.73;7.87;;;10.10;1.00;;;;;;5090812;28;20209;-71
2021/10/17 01:56:47;;;;;;;11.60;8.03;;;10.10;1.00;;;;;;5091269;28;20248;-77
2021/10/17 01:59:14;;;;;;;8.60;7.40;;;10.10;1.00;;;;;;5090243;28;20708;-71
2021/10/17 02:01:41;;;;;;;7.53;6.67;;;10.10;1.00;;;;;;5091197;28;20205;-78
2021/10/17 02:04:08;;;;;;;12.23;6.00;;;10.10;1.00;;;;;;5090881;28;20209;-73
2021/10/17 02:06:35;;;;;;;8.13;5.93;;;10.00;1.00;;;;;;5090687;28;20255;-76
2021/10/17 02:09:02;;;;;;;8.57;6.57;;;10.00;1.00;;;;;;5090871;28;20266;-77
2021/10/17 02:11:31;;;;;;;8.57;6.13;;;10.00;1.00;;;;;;5090848;28;20282;-77
2021/10/17 02:13:58;;;;;;;8.33;5.77;;;10.00;1.00;;;;;;5090662;28;20201;-77
2021/10/17 02:16:25;;;;;;;8.53;6.30;;;10.00;1.00;;;;;;5090511;28;20201;-76
2021/10/17 02:18:52;;;;;;;7.70;6.07;;;10.00;1.00;;;;;;5090860;28;20233;-73
2021/10/17 02:21:19;;;;;;;11.00;6.60;;;10.00;1.00;;;;;;5089718;28;20202;-77
2021/10/17 02:23:46;;;;;;;7.60;6.13;;;9.90;1.00;;;;;;5090667;28;20259;-71
2021/10/17 02:26:13;;;;;;;7.53;5.13;;;10.00;1.00;;;;;;5083120;28;20206;-70
2021/10/17 02:28:41;;;;;;;7.03;6.10;;;10.00;1.00;;;;;;5089219;28;20255;-71
2021/10/17 02:31:08;;;;;;;9.07;6.70;;;9.90;1.00;;;;;;5090678;28;20197;-77
2021/10/17 02:33:35;;;;;;;6.80;6.03;;;10.00;1.00;;;;;;5090167;28;20673;-72
2021/10/17 02:36:02;;;;;;;6.53;5.03;;;10.00;1.00;;;;;;5090130;28;20623;-76
2021/10/17 02:38:29;;;;;;;7.67;5.33;;;10.00;1.00;;;;;;5089636;28;20770;-76
2021/10/17 02:40:57;;;;;;;8.50;5.77;;;10.00;1.00;;;;;;5090653;28;20201;-76
2021/10/17 02:43:24;;;;;;;6.53;5.10;;;9.90;1.00;;;;;;5089883;28;20213;-76
2021/10/17 02:45:52;;;;;;;7.77;5.23;;;9.90;1.00;;;;;;5090675;28;20209;-76
2021/10/17 02:48:20;;;;;;;7.53;5.70;;;10.00;1.00;;;;;;5089993;28;20206;-75
2021/10/17 02:50:47;;;;;;;7.33;6.30;;;9.90;1.00;;;;;;5090093;28;20212;-71
2021/10/17 02:53:14;;;;;;;16.23;12.57;;;9.90;1.00;;;;;;5090217;28;20286;-74
2021/10/17 02:55:41;;;;;;;25.00;20.50;;;9.90;1.00;;;;;;5090321;28;20206;-70
2021/10/17 02:58:08;;;;;;;20.30;17.33;;;9.90;1.00;;;;;;5090784;28;20224;-70
2021/10/17 03:00:35;;;;;;;27.00;20.60;;;9.80;1.00;;;;;;5090028;28;20197;-70
2021/10/17 03:03:04;;;;;;;22.10;18.00;;;9.80;1.00;;;;;;5090193;28;20547;-75
2021/10/17 03:05:31;;;;;;;26.23;16.37;;;9.80;1.00;;;;;;5089491;28;20677;-73
2021/10/17 03:07:58;;;;;;;23.13;15.63;;;9.80;1.00;;;;;;5090487;28;20266;-76
2021/10/17 03:10:25;;;;;;;20.57;15.30;;;9.80;1.00;;;;;;5090126;28;20209;-76
2021/10/17 03:12:52;;;;;;;18.23;15.00;;;9.90;1.00;;;;;;5090269;28;20205;-73
2021/10/17 03:15:19;;;;;;;21.73;14.70;;;9.80;1.00;;;;;;5091583;28;20266;-72
2021/10/17 03:17:47;;;;;;;19.10;14.60;;;9.80;1.00;;;;;;5093726;28;20201;-75
2021/10/17 03:20:15;;;;;;;17.67;13.97;;;9.80;1.00;;;;;;5093789;28;20202;-71
2021/10/17 03:22:42;;;;;;;10.53;9.13;;;9.70;1.00;;;;;;5093659;28;20669;-71
2021/10/17 03:25:10;;;;;;;9.70;8.13;;;9.70;1.00;;;;;;5094187;28;20256;-72
2021/10/17 03:27:37;;;;;;;12.60;9.57;;;9.70;1.00;;;;;;5093816;28;20206;-75
2021/10/17 03:30:05;;;;;;;8.53;6.93;;;9.70;1.00;;;;;;5094209;28;20668;-71
2021/10/17 03:32:32;;;;;;;13.63;9.30;;;9.80;1.00;;;;;;5093688;28;20209;-75
2021/10/17 03:35:02;;;;;;;9.93;7.60;;;9.80;1.00;;;;;;5093425;28;20201;-73
2021/10/17 03:37:31;;;;;;;11.97;8.70;;;9.80;1.00;;;;;;5093160;28;20253;-73
2021/10/17 03:39:59;;;;;;;13.63;9.10;;;9.80;1.00;;;;;;5093590;28;20283;-76
2021/10/17 03:42:26;;;;;;;9.23;7.73;;;9.80;1.00;;;;;;5093126;28;20210;-76
2021/10/17 03:44:53;;;;;;;12.03;8.27;;;9.60;1.00;;;;;;5093598;28;20279;-76
2021/10/17 03:47:20;;;;;;;8.73;7.43;;;9.50;1.00;;;;;;5092953;28;20201;-76
2021/10/17 03:49:47;;;;;;;9.37;8.23;;;9.50;1.00;;;;;;5093315;28;20210;-75
2021/10/17 03:52:14;;;;;;;12.33;8.80;;;9.50;1.00;;;;;;5093197;28;20247;-70
2021/10/17 03:54:43;;;;;;;16.83;8.67;;;9.40;1.00;;;;;;5093577;28;20291;-75
2021/10/17 03:57:11;;;;;;;15.83;9.67;;;9.40;1.00;;;;;;5093349;28;20296;-75
2021/10/17 03:59:38;;;;;;;13.07;9.57;;;9.40;1.00;;;;;;5093548;28;20233;-75
2021/10/17 04:02:05;;;;;;;14.27;9.70;;;9.40;1.00;;;;;;5093140;28;20209;-72
2021/10/17 04:04:32;;;;;;;10.07;9.00;;;9.40;1.00;;;;;;5093030;28;20206;-75
2021/10/17 04:06:59;;;;;;;10.37;8.83;;;9.40;1.00;;;;;;5093124;28;20209;-75
2021/10/17 04:09:26;;;;;;;9.83;8.07;;;9.30;1.00;;;;;;5092514;28;20292;-74
2021/10/17 04:11:54;;;;;;;8.43;7.33;;;9.30;1.00;;;;;;5093104;28;20205;-73
2021/10/17 04:14:21;;;;;;;9.43;7.67;;;9.30;1.00;;;;;;5092524;28;20562;-75
2021/10/17 04:16:48;;;;;;;15.23;8.50;;;9.30;1.00;;;;;;5092839;28;20693;-73
2021/10/17 04:19:15;;;;;;;9.53;7.37;;;9.30;1.00;;;;;;5092235;28;20259;-72
2021/10/17 04:21:42;;;;;;;9.07;7.03;;;9.20;1.00;;;;;;5092914;28;20322;-74
2021/10/17 04:24:09;;;;;;;10.43;6.93;;;9.20;1.00;;;;;;5092841;28;20201;-72
2021/10/17 04:26:37;;;;;;;8.37;6.73;;;9.20;1.00;;;;;;5092434;28;20672;-77
2021/10/17 04:29:05;;;;;;;7.93;7.13;;;9.20;1.00;;;;;;5092742;28;20296;-76
2021/10/17 04:31:32;;;;;;;7.27;5.67;;;9.10;1.00;;;;;;5092147;28;20209;-76
2021/10/17 04:33:59;;;;;;;8.63;7.07;;;9.10;1.00;;;;;;5092684;28;20251;-75
2021/10/17 04:36:27;;;;;;;9.47;7.13;;;9.10;1.00;;;;;;5092156;28;20209;-72
2021/10/17 04:38:54;;;;;;;8.57;6.50;;;9.10;1.00;;;;;;5092677;28;20229;-76
2021/10/17 04:41:21;;;;;;;10.90;7.80;;;9.00;1.00;;;;;;5092150;28;20626;-75
2021/10/17 04:43:48;;;;;;;8.10;7.27;;;9.00;1.00;;;;;;5092749;28;20209;-76
2021/10/17 04:46:16;;;;;;;11.43;8.27;;;9.00;1.00;;;;;;5092032;28;20201;-72
2021/10/17 04:48:43;;;;;;;7.70;6.80;;;9.00;1.00;;;;;;5092256;28;20266;-75
2021/10/17 04:51:10;;;;;;;9.37;6.53;;;9.00;1.00;;;;;;5092115;28;20263;-75
2021/10/17 04:53:37;;;;;;;9.83;6.30;;;8.90;1.00;;;;;;5092432;28;20206;-75
2021/10/17 04:56:04;;;;;;;10.17;6.77;;;8.90;1.00;;;;;;5093015;28;20283;-75
2021/10/17 04:58:31;;;;;;;10.10;8.20;;;9.00;1.00;;;;;;5091553;28;21002;-73
2021/10/17 05:00:58;;;;;;;9.80;6.93;;;8.90;1.00;;;;;;5091990;28;20556;-76
2021/10/17 05:03:27;;;;;;;8.13;6.70;;;8.90;1.00;;;;;;5091421;28;20564;-76
2021/10/17 05:05:54;;;;;;;8.37;6.87;;;8.90;1.00;;;;;;5092089;28;20201;-71
2021/10/17 05:08:21;;;;;;;7.73;6.07;;;8.90;1.00;;;;;;5091497;28;20209;-73
2021/10/17 05:10:48;;;;;;;8.00;7.07;;;8.80;1.00;;;;;;5091805;28;20733;-72
2021/10/17 05:13:15;;;;;;;7.57;6.80;;;8.80;1.00;;;;;;5091450;28;20263;-71
2021/10/17 05:15:42;;;;;;;10.37;6.13;;;8.70;1.00;;;;;;5091344;28;20247;-76
2021/10/17 05:18:09;;;;;;;9.10;6.30;;;8.90;1.00;;;;;;5092039;28;20669;-76
2021/10/17 05:20:37;;;;;;;10.57;7.40;;;8.80;1.00;;;;;;5091336;28;20233;-76
2021/10/17 05:23:05;;;;;;;7.63;6.40;;;8.80;1.00;;;;;;5092304;28;20251;-74
2021/10/17 05:25:32;;;;;;;7.20;6.30;;;8.90;1.00;;;;;;5091361;28;20206;-71
2021/10/17 05:27:59;;;;;;;7.70;6.90;;;8.90;1.00;;;;;;5091559;28;20213;-71
2021/10/17 05:30:26;;;;;;;8.70;7.00;;;8.80;1.00;;;;;;5090853;28;20669;-75
2021/10/17 05:32:53;;;;;;;10.57;6.80;;;8.80;1.00;;;;;;5091137;28;20726;-70
2021/10/17 05:35:20;;;;;;;9.00;6.03;;;8.70;1.00;;;;;;5090972;28;20206;-70
2021/10/17 05:37:49;;;;;;;7.53;6.40;;;8.70;1.00;;;;;;5090623;28;20222;-76
2021/10/17 05:40:16;;;;;;;8.13;7.33;;;8.80;1.00;;;;;;5077249;28;20225;-75
2021/10/17 05:42:43;;;;;;;11.63;8.40;;;9.20;1.00;;;;;;5091245;28;20665;-76
2021/10/17 05:45:10;;;;;;;9.10;7.53;;;9.40;1.00;;;;;;5090968;28;20201;-72
2021/10/17 05:47:38;;;;;;;11.53;8.93;;;9.50;1.00;;;;;;5091528;28;20206;-75
2021/10/17 05:50:06;;;;;;;10.63;8.13;;;9.50;1.00;;;;;;5091252;28;20213;-76
2021/10/17 05:52:34;;;;;;;10.20;9.20;;;9.60;1.00;;;;;;5090819;28;20342;-76
2021/10/17 05:55:02;;;;;;;10.50;7.97;;;9.70;1.00;;;;;;5091184;28;20627;-76
2021/10/17 05:57:29;;;;;;;8.93;7.17;;;9.60;1.00;;;;;;5090919;28;20690;-73
2021/10/17 05:59:56;;;;;;;10.70;8.63;;;9.70;1.00;;;;;;5091003;28;20226;-74
2021/10/17 06:02:23;;;;;;;9.23;7.80;;;9.70;1.00;;;;;;5090607;28;20251;-76
2021/10/17 06:04:50;;;;;;;10.03;8.33;;;9.80;1.00;;;;;;5090964;28;20255;-77
2021/10/17 06:07:17;;;;;;;11.50;8.63;;;9.80;1.00;;;;;;5090231;28;20201;-70
2021/10/17 06:09:44;;;;;;;10.37;7.80;;;9.70;1.00;;;;;;5090804;28;20205;-76
2021/10/17 06:12:12;;;;;;;11.67;7.57;;;9.70;1.00;;;;;;5090570;28;20206;-70
2021/10/17 06:14:39;;;;;;;8.60;6.70;;;9.70;1.00;;;;;;5090765;28;20681;-70
2021/10/17 06:17:06;;;;;;;11.43;7.90;;;9.70;1.00;;;;;;5090748;28;20672;-70
2021/10/17 06:19:33;;;;;;;10.73;7.83;;;9.50;1.00;;;;;;5090590;28;20294;-70
2021/10/17 06:22:03;;;;;;;8.87;7.27;;;9.50;1.00;;;;;;5090891;28;20557;-70
2021/10/17 06:24:31;;;;;;;9.53;7.40;;;9.50;1.00;;;;;;5090427;28;20205;-70
2021/10/17 06:26:58;;;;;;;10.73;8.33;;;9.50;1.00;;;;;;5090376;28;20300;-70
2021/10/17 06:29:26;;;;;;;8.13;6.23;;;9.60;1.00;;;;;;5089960;28;20209;-70
2021/10/17 06:31:54;;;;;;;6.97;6.23;;;9.50;1.00;;;;;;5090737;28;20231;-70
2021/10/17 06:34:21;;;;;;;9.97;7.03;;;9.50;1.00;;;;;;5090265;28;20266;-76
2021/10/17 06:36:48;;;;;;;8.97;7.77;;;9.50;1.00;;;;;;5090240;28;20267;-70
2021/10/17 06:39:15;;;;;;;8.57;7.33;;;9.60;1.00;;;;;;5090097;28;20278;-75
2021/10/17 06:41:42;;;;;;;9.20;7.77;;;9.50;1.00;;;;;;5089948;28;20213;-70
2021/10/17 06:44:09;;;;;;;10.20;8.53;;;9.50;1.00;;;;;;5090857;28;20710;-70
2021/10/17 06:46:38;;;;;;;10.30;8.67;;;9.50;1.00;;;;;;5090419;28;20216;-75
2021/10/17 06:49:05;;;;;;;11.40;8.20;;;9.60;1.00;;;;;;5090778;28;20669;-71
2021/10/17 06:51:32;;;;;;;11.00;7.70;;;9.50;1.00;;;;;;5093615;28;20213;-71
2021/10/17 06:53:59;;;;;;;10.93;8.07;;;9.50;1.00;;;;;;5094374;28;20592;-70
2021/10/17 06:56:26;;;;;;;9.13;7.67;;;9.70;1.00;;;;;;5094149;28;20258;-77
2021/10/17 06:58:52;;;;;;;10.43;8.73;;;9.70;1.00;;;;;;5094332;28;20262;-75
2021/10/17 07:01:20;;;;;;;11.40;7.87;;;9.80;1.00;;;;;;5094033;28;20622;-71
2021/10/17 07:03:48;;;;;;;8.97;8.00;;;9.80;1.00;;;;;;5094434;28;20201;-70
2021/10/17 07:06:15;;;;;;;8.17;7.37;;;9.80;1.00;;;;;;5093891;28;20558;-71
2021/10/17 07:08:43;;;;;;;8.73;7.43;;;9.90;1.00;;;;;;5093934;28;20209;-71
2021/10/17 07:11:10;;;;;;;8.80;6.77;;;9.90;1.00;;;;;;5094180;28;20742;-76
2021/10/17 07:13:37;;;;;;;8.07;6.53;;;10.00;1.00;;;;;;5094339;28;20210;-77
2021/10/17 07:16:04;;;;;;;10.07;8.23;;;10.10;1.00;;;;;;5094543;28;20217;-75
2021/10/17 07:18:31;;;;;;;7.53;6.80;;;10.30;1.00;;;;;;5093665;28;20210;-76
2021/10/17 07:21:00;;;;;;;9.63;7.30;;;10.40;1.00;;;;;;5093942;28;20229;-71
2021/10/17 07:23:27;;;;;;;10.17;7.00;;;10.40;1.00;;;;;;5093888;28;20254;-77
2021/10/17 07:25:54;;;;;;;10.17;7.80;;;10.40;1.00;;;;;;5093651;28;20210;-77
2021/10/17 07:28:20;;;;;;;8.27;7.47;;;10.50;1.00;;;;;;5093504;28;20205;-75
2021/10/17 07:30:47;;;;;;;10.10;8.40;;;10.70;1.00;;;;;;5093555;28;20621;-74
2021/10/17 07:33:14;;;;;;;10.10;8.30;;;10.90;1.00;;;;;;5093545;28;20206;-76
2021/10/17 07:35:41;;;;;;;10.03;7.20;;;11.20;1.00;;;;;;5093540;28;20247;-76
2021/10/17 07:38:10;;;;;;;9.33;7.87;;;11.40;1.00;;;;;;5093817;28;20282;-71
2021/10/17 07:40:37;;;;;;;8.30;7.40;;;11.50;1.00;;;;;;5094025;28;20229;-77
2021/10/17 07:43:04;;;;;;;9.93;7.70;;;11.70;1.00;;;;;;5094016;28;20212;-76
2021/10/17 07:45:32;;;;;;;7.87;6.97;;;11.70;1.00;;;;;;5093274;28;20734;-76
2021/10/17 07:47:59;;;;;;;11.30;7.90;;;11.70;1.00;;;;;;5093458;28;20468;-72
2021/10/17 07:50:26;;;;;;;14.30;7.67;;;11.80;1.00;;;;;;5092891;28;20251;-71
2021/10/17 07:52:53;;;;;;;8.73;7.03;;;11.90;1.00;;;;;;5093464;28;20561;-75
2021/10/17 07:55:21;;;;;;;9.13;7.67;;;12.00;1.00;;;;;;5092521;28;20657;-75
2021/10/17 07:57:50;;;;;;;9.40;6.83;;;12.20;1.00;;;;;;5093511;28;20213;-71
2021/10/17 08:00:20;;;;;;;7.80;6.37;;;12.30;1.00;;;;;;5092238;28;20222;-76
2021/10/17 08:02:47;;;;;;;9.73;7.73;;;12.40;1.00;;;;;;5093122;28;20259;-72
2021/10/17 08:05:15;;;;;;;9.17;6.93;;;12.60;1.00;;;;;;5092510;28;20270;-70
2021/10/17 08:07:42;;;;;;;5.90;5.30;;;12.70;1.00;;;;;;5093475;28;20212;-72
2021/10/17 08:10:10;;;;;;;9.33;6.70;;;12.90;1.00;;;;;;5093040;28;20202;-70
2021/10/17 08:12:39;;;;;;;6.88;5.93;;;13.00;1.00;;;;;;5093240;28;20228;-75
2021/10/17 08:15:08;;;;;;;8.45;6.63;;;13.20;1.00;;;;;;5093279;28;20208;-76
2021/10/17 08:17:35;;;;;;;7.30;6.17;;;13.30;1.00;;;;;;5092834;28;20657;-77
2021/10/17 08:20:02;;;;;;;7.40;6.10;;;13.40;1.00;;;;;;5093148;28;20228;-76
2021/10/17 08:22:29;;;;;;;8.13;6.67;;;13.40;1.00;;;;;;5092344;28;20262;-77
2021/10/17 08:24:56;;;;;;;9.50;6.75;;;13.70;1.00;;;;;;5092750;28;20263;-76
2021/10/17 08:27:23;;;;;;;8.88;6.10;;;13.90;1.00;;;;;;5092350;28;20202;-76
2021/10/17 08:29:51;;;;;;;5.78;5.20;;;14.00;1.00;;;;;;5092749;28;20205;-77
2021/10/17 08:32:18;;;;;;;8.13;6.18;;;14.10;1.00;;;;;;5092159;28;20267;-74
2021/10/17 08:34:45;;;;;;;6.95;6.25;;;14.10;1.00;;;;;;5092580;28;20232;-71
2021/10/17 08:37:12;;;;;;;8.57;6.13;;;14.10;1.00;;;;;;5091900;28;20214;-70
2021/10/17 08:39:39;;;;;;;5.50;4.95;;;14.40;1.00;;;;;;5092592;28;20233;-70
2021/10/17 08:42:07;;;;;;;8.57;5.50;;;14.50;1.00;;;;;;5092942;28;20282;-77
2021/10/17 08:44:34;;;;;;;7.63;5.80;;;14.80;1.00;;;;;;5092151;28;20206;-73
2021/10/17 08:47:02;;;;;;;7.07;5.10;;;14.90;1.00;;;;;;5092265;28;20206;-76
2021/10/17 08:49:30;;;;;;;7.53;5.10;;;15.00;1.00;;;;;;5092089;28;20267;-77
2021/10/17 08:51:57;;;;;;;6.45;5.47;;;15.10;1.00;;;;;;5091837;28;20205;-76
2021/10/17 08:54:24;;;;;;;5.18;4.43;;;15.40;1.00;;;;;;5092081;28;20269;-74
2021/10/17 08:56:51;;;;;;;6.18;5.25;;;15.60;1.00;;;;;;5092137;28;20256;-75
2021/10/17 08:59:18;;;;;;;5.88;5.28;;;15.60;1.00;;;;;;5091812;28;20586;-77
2021/10/17 09:01:45;;;;;;;5.75;4.47;;;15.80;1.00;;;;;;5091785;28;20644;-76
2021/10/17 09:04:17;;;;;;;6.38;4.78;;;16.00;1.00;;;;;;5092141;28;20205;-71
2021/10/17 09:06:46;;;;;;;7.15;4.72;;;16.00;1.00;;;;;;5091505;28;20212;-70
2021/10/17 09:09:16;;;;;;;7.53;4.32;;;16.20;1.00;;;;;;5091548;28;20213;-76
2021/10/17 09:11:45;;;;;;;5.55;4.50;;;16.30;1.00;;;;;;5091912;28;20308;-77
2021/10/17 09:14:13;;;;;;;6.35;4.68;;;16.40;1.00;;;;;;5091077;28;20282;-71
2021/10/17 09:16:42;;;;;;;10.00;4.78;;;16.50;1.00;;;;;;5091901;28;20206;-77
2021/10/17 09:19:29;;;;;;;5.50;4.88;;;16.70;1.00;;;;;;5091743;28;20205;-70
2021/10/17 09:22:03;;;;;;;5.05;3.83;;;16.90;1.00;;;;;;5091559;28;20221;-78
2021/10/17 09:24:33;;;;;;;6.65;4.68;;;16.90;1.00;;;;;;5064062;28;20193;-77
2021/10/17 09:27:08;;;;;;;6.05;4.57;;;17.00;1.00;;;;;;5091769;28;20213;-77
2021/10/17 09:29:36;;;;;;;5.05;4.18;;;17.20;1.00;;;;;;5091491;28;20254;-75
2021/10/17 09:32:10;;;;;;;8.18;4.63;;;17.30;1.00;;;;;;5091310;28;20260;-72
2021/10/17 09:34:39;;;;;;;4.72;4.32;;;17.40;1.00;;;;;;5091342;28;20233;-74
2021/10/17 09:37:08;;;;;;;5.93;5.32;;;17.50;99.90;;;;;;5091503;28;20745;-75
2021/10/17 09:39:37;;;;;;;3.90;3.35;;;17.70;99.90;;;;;;5091359;28;20278;-77
2021/10/17 09:42:05;;;;;;;4.68;4.15;;;17.80;99.90;;;;;;5091745;28;20210;-76
2021/10/17 09:44:43;;;;;;;4.97;3.63;;;17.80;99.90;;;;;;5091155;28;20210;-75
2021/10/17 09:47:11;;;;;;;5.03;4.10;;;18.00;99.90;;;;;;5065378;28;20205;-75
2021/10/17 09:49:40;;;;;;;7.65;4.90;;;18.30;99.90;;;;;;5091735;28;20645;-73
2021/10/17 09:52:13;;;;;;;4.80;4.00;;;18.80;99.90;;;;;;5091362;28;20259;-77
2021/10/17 09:54:40;;;;;;;7.13;4.07;;;19.00;99.90;;;;;;5091117;28;20213;-75
2021/10/17 09:57:08;;;;;;;4.28;3.50;;;19.00;99.90;;;;;;5091320;28;20634;-75
2021/10/17 09:59:36;;;;;;;4.88;4.38;;;19.60;99.90;;;;;;5091047;28;20201;-75
2021/10/17 10:02:08;;;;;;;4.35;3.95;;;19.90;99.90;;;;;;5090626;28;20240;-76
2021/10/17 10:04:38;;;;;;;4.70;4.25;;;20.20;99.90;;;;;;5090883;28;20197;-75
2021/10/17 10:07:07;;;;;;;4.63;3.85;;;20.30;99.90;;;;;;5091293;28;20201;-77
2021/10/17 10:09:35;;;;;;;4.85;4.20;;;20.60;99.90;;;;;;5090789;28;20209;-74
2021/10/17 10:12:04;;;;;;;6.55;4.90;;;21.80;99.90;;;;;;5090514;28;20206;-77
2021/10/17 10:14:32;;;;;;;5.43;4.28;;;20.00;99.90;;;;;;5090526;28;20205;-75
2021/10/17 10:17:02;;;;;;;5.22;4.72;;;19.10;99.90;;;;;;5090830;28;20624;-76
2021/10/17 10:19:30;;;;;;;4.78;4.38;;;18.80;99.90;;;;;;5090351;28;20212;-75
2021/10/17 10:21:58;;;;;;;7.97;3.72;;;18.50;99.90;;;;;;5090923;28;20302;-76
2021/10/17 10:24:27;;;;;;;5.70;3.67;;;18.70;99.90;;;;;;5090222;28;20251;-72
2021/10/17 10:26:54;;;;;;;6.60;4.47;;;18.90;99.90;;;;;;5090856;28;20210;-77
2021/10/17 10:29:26;;;;;;;6.43;3.65;;;18.90;99.90;;;;;;5090159;28;20205;-77
2021/10/17 10:31:54;;;;;;;4.55;4.03;;;18.80;99.90;;;;;;5090905;28;20213;-73
2021/10/17 10:34:50;;;;;;;4.80;4.10;;;18.90;99.90;;;;;;5089709;28;20255;-76
2021/10/17 10:37:18;;;;;;;5.50;3.70;;;19.00;99.90;;;;;;5090237;28;20224;-75
2021/10/17 10:40:15;;;;;;;3.58;3.28;;;19.00;99.90;;;;;;5090532;28;20209;-78
2021/10/17 10:42:46;;;;;;;4.38;3.92;;;19.20;99.90;;;;;;5090506;28;20206;-75
2021/10/17 10:45:25;;;;;;;5.18;3.97;;;19.00;99.90;;;;;;5089994;28;20231;-71
2021/10/17 10:48:21;;;;;;;4.70;4.30;;;19.10;99.90;;;;;;5090466;28;20205;-76
2021/10/17 10:50:50;;;;;;;7.10;3.75;;;19.10;99.90;;;;;;5068345;28;20213;-76
2021/10/17 10:53:46;;;;;;;3.75;3.40;;;19.10;99.90;;;;;;5090034;28;20263;-75
2021/10/17 10:56:48;;;;;;;4.63;4.15;;;19.10;99.90;;;;;;5090267;28;20229;-75
2021/10/17 10:59:17;;;;;;;6.18;3.40;;;19.10;99.90;;;;;;5089969;28;20213;-72
2021/10/17 11:02:10;;;;;;;5.68;3.50;;;19.30;99.90;;;;;;5090159;28;20274;-76
2021/10/17 11:05:07;;;;;;;4.55;4.15;;;19.50;99.90;;;;;;5086181;28;20209;-76
2021/10/17 11:07:42;;;;;;;4.38;3.97;;;19.30;99.90;;;;;;5064038;28;20209;-75
2021/10/17 11:10:46;;;;;;;4.75;4.03;;;19.30;99.90;;;;;;5090204;28;20207;-71
2021/10/17 11:13:28;;;;;;;7.70;3.92;;;19.40;99.90;;;;;;5089981;28;20244;-75
2021/10/17 11:15:56;;;;;;;4.15;3.75;;;19.60;99.90;;;;;;5089925;28;20197;-74
2021/10/17 11:18:35;;;;;;;4.50;4.10;;;19.40;99.90;;;;;;5089453;28;20259;-75
2021/10/17 11:21:04;;;;;;;12.27;5.07;;;19.80;99.90;;;;;;5090005;28;20221;-76
2021/10/17 11:23:33;;;;;;;4.75;4.10;;;19.70;99.90;;;;;;5089795;28;20251;-74
2021/10/17 11:26:02;;;;;;;4.53;4.07;;;19.60;99.90;;;;;;5090059;28;20202;-76
2021/10/17 11:28:32;;;;;;;5.00;4.35;;;19.50;99.90;;;;;;5089696;28;20793;-72
2021/10/17 11:31:11;;;;;;;3.85;3.40;;;19.70;99.90;;;;;;5090000;28;20247;-78
2021/10/17 11:33:39;;;;;;;4.90;4.38;;;19.90;99.90;;;;;;5090501;28;20197;-75
2021/10/17 11:36:07;;;;;;;4.78;4.32;;;20.00;99.90;;;;;;5091390;28;20745;-75
2021/10/17 11:38:34;;;;;;;6.55;3.80;;;20.20;99.90;;;;;;5065731;28;20266;-70
2021/10/17 11:41:07;;;;;;;5.30;3.72;;;20.30;99.90;;;;;;5093536;28;20229;-76
2021/10/17 11:43:40;;;;;;;5.13;4.00;;;20.30;99.90;;;;;;5093280;28;20209;-75
2021/10/17 11:46:10;;;;;;;4.35;3.58;;;20.10;99.90;;;;;;5093938;28;20210;-76
2021/10/17 11:48:38;;;;;;;4.32;3.92;;;20.00;99.90;;;;;;5093764;28;20593;-74
2021/10/17 11:51:07;;;;;;;3.85;3.33;;;20.20;99.90;;;;;;5093789;28;20380;-76
2021/10/17 11:53:34;;;;;;;7.95;4.22;;;20.30;99.90;;;;;;5093312;28;20206;-76
2021/10/17 11:56:02;;;;;;;4.68;3.58;;;20.30;99.90;;;;;;5093475;28;20289;-74
2021/10/17 11:58:31;;;;;;;5.00;4.07;;;20.30;99.90;;;;;;5092732;28;20704;-76
2021/10/17 12:01:08;;;;;;;4.22;3.83;;;20.30;99.90;;;;;;5093210;28;20225;-71
2021/10/17 12:03:36;;;;;;;4.03;3.35;;;20.50;99.90;;;;;;5093398;28;20676;-75
2021/10/17 12:06:03;;;;;;;4.60;4.00;;;20.50;99.90;;;;;;5093259;28;20205;-75
2021/10/17 12:08:32;;;;;;;4.28;3.40;;;20.60;99.90;;;;;;5092775;28;20270;-70
2021/10/17 12:11:02;;;;;;;5.97;3.55;;;20.60;99.90;;;;;;5093222;28;20925;-79
2021/10/17 12:13:30;;;;;;;4.20;3.83;;;20.40;99.90;;;;;;5092851;28;20209;-76
2021/10/17 12:16:07;;;;;;;4.05;3.35;;;20.30;99.90;;;;;;5093092;28;20255;-72
2021/10/17 12:18:35;;;;;;;3.75;3.45;;;20.50;99.90;;;;;;5092760;28;20208;-77
2021/10/17 12:21:03;;;;;;;5.20;4.70;;;20.60;99.90;;;;;;5092816;28;20229;-77
2021/10/17 12:23:30;;;;;;;3.92;3.53;;;20.50;99.90;;;;;;5092453;28;20209;-76
2021/10/17 12:25:57;;;;;;;4.20;3.40;;;20.60;99.90;;;;;;5092551;28;20661;-76
2021/10/17 12:28:24;;;;;;;4.03;3.63;;;20.60;99.90;;;;;;5092732;28;20624;-76
2021/10/17 12:30:54;;;;;;;5.28;4.20;;;20.80;99.90;;;;;;5092500;28;20225;-71
2021/10/17 12:33:31;;;;;;;3.83;3.20;;;21.00;99.90;;;;;;5092188;28;20258;-70
2021/10/17 12:35:59;;;;;;;5.43;3.88;;;21.00;99.90;;;;;;5092387;28;20662;-71
2021/10/17 12:38:31;;;;;;;3.70;3.35;;;20.80;99.90;;;;;;5091762;28;20209;-75
2021/10/17 12:41:00;;;;;;;3.72;3.42;;;20.70;99.90;;;;;;5092410;28;20640;-76
2021/10/17 12:43:30;;;;;;;5.00;3.50;;;20.60;99.90;;;;;;5091962;28;20250;-76
2021/10/17 12:46:10;;;;;;;4.57;4.00;;;20.80;99.90;;;;;;5092249;28;20205;-72
2021/10/17 12:48:39;;;;;;;3.63;3.33;;;20.80;99.90;;;;;;5092580;28;20197;-71
2021/10/17 12:51:33;;;;;;;4.00;3.22;;;20.50;99.90;;;;;;5092807;28;20266;-74
2021/10/17 12:54:12;;;;;;;6.60;3.13;;;20.60;99.90;;;;;;5092408;28;20209;-70
2021/10/17 12:56:41;;;;;;;3.17;2.88;;;20.70;99.90;;;;;;5092080;28;20227;-77
2021/10/17 12:59:09;;;;;;;4.38;3.97;;;20.70;99.90;;;;;;5092576;28;20282;-76
2021/10/17 13:01:36;;;;;;;6.95;4.35;;;20.80;99.90;;;;;;5091924;28;20298;-78
2021/10/17 13:04:14;;;;;;;4.72;4.30;;;20.60;99.90;;;;;;5064131;28;20201;-74